Cosperville, Indiana
Current Conditions -  °F | °C
As of 11:10 AM on Sunday 25 Jan 2015 (Local Time) from KGSH Reporting Station
Light Snow Light Snow  
Wind Chill: 23°   Ceiling: 900
Heat Index: 33°   Visibility: 1.7mi
Dew Point: 31°   Wind: 14mph
Humidity: 92%   Direction: 60°ENE
Pressure: 29.77"   Gusts: 21mph
Location:  41.4818°N, 85.481°W
Report Text: KGSH 251610Z AUTO 06012G18KT 1 3/4SM -SN BR OVC009 01/M01 A2977 RMK AO2 CIG 006V014 P0000 T00061006
Loading
Personal Weather Stations






























Interactive Weather Map New forecast layout! Learn more

10-Day Weather Forecast

Advertisements
Track Severe Weather on mobile